Time;durP1;ratioP1;P1;durP2;ratioP2;P2;SDS_P1;SDS_P2;PMS_P1;PMS_P2;Temp;Humidity;BMP_temperature;BMP_pressure;BME280_temperature;BME280_humidity;BME280_pressure;Samples;Min_cycle;Max_cycle;Signal;HPM_P1;HPM_P2
2024/01/10 00:01:47;;;;;;;;;;;-7.20;100.00;;;;;;6234506;23;19919;-68
2024/01/10 00:04:16;;;;;;;;;;;-7.10;100.00;;;;;;6234236;23;19926;-69
2024/01/10 00:06:43;;;;;;;;;;;-7.10;100.00;;;;;;6234442;23;19919;-68
2024/01/10 00:09:10;;;;;;;;;;;-7.00;100.00;;;;;;6234246;23;19926;-68
2024/01/10 00:11:36;;;;;;;;;;;-7.00;100.00;;;;;;6182714;23;19919;-68
2024/01/10 00:14:03;;;;;;;;;;;-6.90;100.00;;;;;;6234570;23;19942;-68
2024/01/10 00:16:30;;;;;;;;;;;-6.80;100.00;;;;;;6234338;23;19946;-69
2024/01/10 00:18:57;;;;;;;;;;;-6.80;100.00;;;;;;6234270;23;19919;-69
2024/01/10 00:21:24;;;;;;;;;;;-6.70;100.00;;;;;;6208590;23;19919;-68
2024/01/10 00:23:51;;;;;;;;;;;-6.60;100.00;;;;;;6234704;23;20253;-69
2024/01/10 00:26:18;;;;;;;;;;;-6.60;100.00;;;;;;6207481;23;19916;-68
2024/01/10 00:28:47;;;;;;;;;;;-6.60;100.00;;;;;;6207850;23;20475;-69
2024/01/10 00:31:14;;;;;;;;;;;-6.50;100.00;;;;;;6207021;23;20648;-68
2024/01/10 00:33:41;;;;;;;;;;;-6.40;100.00;;;;;;6233845;23;20303;-69
2024/01/10 00:36:08;;;;;;;;;;;-6.40;100.00;;;;;;6207257;23;20367;-68
2024/01/10 00:38:36;;;;;;;;;;;-6.30;100.00;;;;;;6207301;23;20408;-68
2024/01/10 00:41:03;;;;;;;;;;;-6.30;100.00;;;;;;6233524;23;20391;-69
2024/01/10 00:43:30;;;;;;;;;;;-6.30;100.00;;;;;;6233002;23;19920;-69
2024/01/10 00:45:56;;;;;;;;;;;-6.20;100.00;;;;;;6234088;23;20561;-69
2024/01/10 00:48:23;;;;;;;;;;;-6.20;100.00;;;;;;6233719;23;19927;-68
2024/01/10 00:50:50;;;;;;;;;;;-6.20;100.00;;;;;;6206203;23;20280;-68
2024/01/10 00:53:17;;;;;;;;;;;-6.10;100.00;;;;;;6207719;23;19974;-68
2024/01/10 00:55:44;;;;;;;;;;;-6.10;100.00;;;;;;6234746;23;20335;-68
2024/01/10 00:58:11;;;;;;;;;;;-6.10;100.00;;;;;;6234491;23;19919;-68
2024/01/10 01:00:37;;;;;;;;;;;-6.00;100.00;;;;;;6233886;23;19927;-68
2024/01/10 01:03:04;;;;;;;;;;;-6.00;100.00;;;;;;6234449;23;20669;-68
2024/01/10 01:05:31;;;;;;;;;;;-6.00;100.00;;;;;;6205139;23;20341;-69
2024/01/10 01:07:58;;;;;;;;;;;-5.90;100.00;;;;;;6232108;23;19922;-68
2024/01/10 01:10:25;;;;;;;;;;;-5.90;100.00;;;;;;6231261;23;19923;-68
2024/01/10 01:12:51;;;;;;;;;;;-5.90;100.00;;;;;;6204577;23;19919;-69
2024/01/10 01:15:18;;;;;;;;;;;-5.90;100.00;;;;;;6230586;23;19919;-69
2024/01/10 01:17:45;;;;;;;;;;;-5.90;100.00;;;;;;6231159;23;19954;-69
2024/01/10 01:20:12;;;;;;;;;;;-5.90;100.00;;;;;;6204350;23;19974;-69
2024/01/10 01:22:39;;;;;;;;;;;-5.90;100.00;;;;;;6232617;23;19919;-69
2024/01/10 01:25:06;;;;;;;;;;;-5.80;100.00;;;;;;6204826;23;19938;-69
2024/01/10 01:27:33;;;;;;;;;;;-5.80;100.00;;;;;;6233542;23;19919;-68
2024/01/10 01:30:00;;;;;;;;;;;-5.80;100.00;;;;;;6206828;23;20422;-69
2024/01/10 01:32:27;;;;;;;;;;;-5.70;100.00;;;;;;6234025;23;19967;-68
2024/01/10 01:34:54;;;;;;;;;;;-5.70;100.00;;;;;;6233106;23;20638;-69
2024/01/10 01:37:21;;;;;;;;;;;-5.60;100.00;;;;;;6233945;23;20478;-68
2024/01/10 01:39:47;;;;;;;;;;;-5.60;100.00;;;;;;6234675;23;20452;-69
2024/01/10 01:42:15;;;;;;;;;;;-5.50;100.00;;;;;;6208095;23;19919;-69
2024/01/10 01:44:41;;;;;;;;;;;-5.50;100.00;;;;;;6236090;23;19923;-68
2024/01/10 01:47:08;;;;;;;;;;;-5.50;100.00;;;;;;6235830;23;19985;-69
2024/01/10 01:49:35;;;;;;;;;;;-5.40;100.00;;;;;;6207355;23;19919;-69
2024/01/10 01:52:02;;;;;;;;;;;-5.30;100.00;;;;;;6232851;23;19919;-68
2024/01/10 01:54:30;;;;;;;;;;;-5.30;100.00;;;;;;6235094;23;20610;-69
2024/01/10 01:56:57;;;;;;;;;;;-5.30;100.00;;;;;;6208017;23;19946;-68
2024/01/10 01:59:24;;;;;;;;;;;-5.20;100.00;;;;;;6235911;23;19942;-69
2024/01/10 02:01:52;;;;;;;;;;;-5.20;100.00;;;;;;6234559;23;20007;-68
2024/01/10 02:04:19;;;;;;;;;;;-5.10;100.00;;;;;;6235794;23;20001;-69
2024/01/10 02:06:46;;;;;;;;;;;-5.10;100.00;;;;;;6234832;23;19923;-68
2024/01/10 02:09:13;;;;;;;;;;;-5.10;100.00;;;;;;6235906;23;20030;-68
2024/01/10 02:11:40;;;;;;;;;;;-5.10;100.00;;;;;;6207990;23;19927;-68
2024/01/10 02:14:07;;;;;;;;;;;-5.10;100.00;;;;;;6236290;23;20284;-69
2024/01/10 02:16:34;;;;;;;;;;;-5.00;100.00;;;;;;6236051;23;19961;-69
2024/01/10 02:19:01;;;;;;;;;;;-5.00;100.00;;;;;;6235702;23;20404;-69
2024/01/10 02:21:28;;;;;;;;;;;-5.10;100.00;;;;;;6234970;23;19916;-69
2024/01/10 02:23:55;;;;;;;;;;;-5.10;100.00;;;;;;6235326;23;19977;-69
2024/01/10 02:26:21;;;;;;;;;;;-5.10;100.00;;;;;;6234885;23;19962;-69
2024/01/10 02:28:48;;;;;;;;;;;-5.10;100.00;;;;;;6236052;23;19919;-68
2024/01/10 02:31:15;;;;;;;;;;;-5.10;100.00;;;;;;6234508;23;19920;-69
2024/01/10 02:33:42;;;;;;;;;;;-5.00;100.00;;;;;;6234642;23;19954;-68
2024/01/10 02:36:09;;;;;;;;;;;-5.00;100.00;;;;;;6234308;23;19926;-69
2024/01/10 02:38:35;;;;;;;;;;;-5.00;100.00;;;;;;6234597;23;19919;-69
2024/01/10 02:41:02;;;;;;;;;;;-5.00;100.00;;;;;;6234887;23;20054;-69
2024/01/10 02:43:29;;;;;;;;;;;-5.00;100.00;;;;;;6209129;23;19926;-69
2024/01/10 02:45:56;;;;;;;;;;;-4.90;100.00;;;;;;6235138;23;19923;-69
2024/01/10 02:48:23;;;;;;;;;;;-4.90;100.00;;;;;;6236682;23;19923;-64
2024/01/10 02:50:50;;;;;;;;;;;-4.90;100.00;;;;;;6208762;23;19920;-64
2024/01/10 02:53:17;;;;;;;;;;;-4.90;100.00;;;;;;6234685;23;20297;-64
2024/01/10 02:55:46;;;;;;;;;;;-4.90;100.00;;;;;;6235356;23;19923;-64
2024/01/10 02:58:13;;;;;;;;;;;-4.90;100.00;;;;;;6235592;23;19951;-64
2024/01/10 03:00:39;;;;;;;;;;;-5.00;100.00;;;;;;6234969;23;20431;-64
2024/01/10 03:03:06;;;;;;;;;;;-5.00;100.00;;;;;;6208484;23;20022;-64
2024/01/10 03:05:33;;;;;;;;;;;-5.00;100.00;;;;;;6208625;23;19916;-64
2024/01/10 03:08:02;;;;;;;;;;;-5.00;100.00;;;;;;6235652;23;20697;-63
2024/01/10 03:10:29;;;;;;;;;;;-5.00;100.00;;;;;;6234880;23;20328;-64
2024/01/10 03:12:55;;;;;;;;;;;-4.90;100.00;;;;;;6235407;23;19923;-63
2024/01/10 03:15:23;;;;;;;;;;;-4.90;100.00;;;;;;6234666;23;19919;-64
2024/01/10 03:17:49;;;;;;;;;;;-5.00;100.00;;;;;;6235043;23;19926;-64
2024/01/10 03:20:16;;;;;;;;;;;-5.00;100.00;;;;;;6235446;23;19926;-64
2024/01/10 03:22:43;;;;;;;;;;;-5.00;100.00;;;;;;6235232;23;19950;-64
2024/01/10 03:25:10;;;;;;;;;;;-5.00;100.00;;;;;;6234737;23;19919;-64
2024/01/10 03:27:37;;;;;;;;;;;-5.00;100.00;;;;;;6234436;23;19923;-64
2024/01/10 03:30:04;;;;;;;;;;;-5.00;100.00;;;;;;6208647;23;19927;-64
2024/01/10 03:32:31;;;;;;;;;;;-5.00;100.00;;;;;;6207640;23;19923;-64
2024/01/10 03:34:58;;;;;;;;;;;-5.00;100.00;;;;;;6234687;23;19927;-64
2024/01/10 03:37:25;;;;;;;;;;;-5.00;100.00;;;;;;6234349;23;19965;-64
2024/01/10 03:39:52;;;;;;;;;;;-5.10;100.00;;;;;;6208392;23;20005;-64
2024/01/10 03:42:19;;;;;;;;;;;-5.00;100.00;;;;;;6207363;23;19916;-64
2024/01/10 03:44:46;;;;;;;;;;;-5.10;100.00;;;;;;6207526;23;19965;-64
2024/01/10 03:47:12;;;;;;;;;;;-5.10;100.00;;;;;;6235043;23;19923;-64
2024/01/10 03:49:39;;;;;;;;;;;-5.10;100.00;;;;;;6235478;23;20010;-64
2024/01/10 03:52:06;;;;;;;;;;;-5.10;100.00;;;;;;6234934;23;19957;-64
2024/01/10 03:54:33;;;;;;;;;;;-5.10;100.00;;;;;;6235450;23;19919;-64
2024/01/10 03:57:00;;;;;;;;;;;-5.00;100.00;;;;;;6232426;23;20260;-64
2024/01/10 03:59:27;;;;;;;;;;;-5.00;100.00;;;;;;6235128;23;19926;-64
2024/01/10 04:01:54;;;;;;;;;;;-5.00;100.00;;;;;;6205815;23;19923;-64
2024/01/10 04:04:20;;;;;;;;;;;-5.00;100.00;;;;;;6206452;23;20598;-64
2024/01/10 04:06:47;;;;;;;;;;;-5.00;100.00;;;;;;6207237;23;19919;-64
2024/01/10 04:09:14;;;;;;;;;;;-4.90;100.00;;;;;;6234163;23;20230;-64
2024/01/10 04:11:41;;;;;;;;;;;-4.90;100.00;;;;;;6234099;23;19950;-64
2024/01/10 04:14:08;;;;;;;;;;;-4.90;100.00;;;;;;6206864;23;20004;-64
2024/01/10 04:16:34;;;;;;;;;;;-4.90;100.00;;;;;;6234002;23;20320;-64
2024/01/10 04:19:01;;;;;;;;;;;-4.90;100.00;;;;;;6233491;23;19926;-64
2024/01/10 04:21:28;;;;;;;;;;;-4.80;100.00;;;;;;6207721;23;19953;-64
2024/01/10 04:23:55;;;;;;;;;;;-4.80;100.00;;;;;;6233828;23;19959;-64
2024/01/10 04:26:21;;;;;;;;;;;-4.80;100.00;;;;;;6233385;23;20372;-64
2024/01/10 04:28:48;;;;;;;;;;;-4.80;100.00;;;;;;6232701;23;19959;-64
2024/01/10 04:31:15;;;;;;;;;;;-4.80;100.00;;;;;;6233610;23;20307;-64
2024/01/10 04:33:42;;;;;;;;;;;-4.80;100.00;;;;;;6232330;23;19919;-64
2024/01/10 04:36:09;;;;;;;;;;;-4.80;100.00;;;;;;6233509;23;20505;-64
2024/01/10 04:38:36;;;;;;;;;;;-4.80;100.00;;;;;;6233424;23;19920;-64
2024/01/10 04:41:02;;;;;;;;;;;-4.80;100.00;;;;;;6234171;23;19919;-64
2024/01/10 04:43:30;;;;;;;;;;;-4.70;100.00;;;;;;6208054;23;19930;-64
2024/01/10 04:45:56;;;;;;;;;;;-4.80;100.00;;;;;;6206319;23;19977;-64
2024/01/10 04:48:23;;;;;;;;;;;-4.80;100.00;;;;;;6206508;23;19919;-64
2024/01/10 04:50:50;;;;;;;;;;;-4.70;100.00;;;;;;6232765;23;19937;-64
2024/01/10 04:53:17;;;;;;;;;;;-4.70;100.00;;;;;;6230774;23;20549;-64
2024/01/10 04:55:44;;;;;;;;;;;-4.70;100.00;;;;;;6233660;23;20407;-64
2024/01/10 04:58:13;;;;;;;;;;;-4.70;100.00;;;;;;6207633;23;19955;-64
2024/01/10 05:00:40;;;;;;;;;;;-4.70;100.00;;;;;;6207335;23;19919;-64
2024/01/10 05:03:06;;;;;;;;;;;-4.70;100.00;;;;;;6207481;23;20014;-64
2024/01/10 05:05:33;;;;;;;;;;;-4.70;100.00;;;;;;6233817;23;19916;-64
2024/01/10 05:08:01;;;;;;;;;;;-4.70;100.00;;;;;;6207696;23;20328;-64
2024/01/10 05:10:28;;;;;;;;;;;-4.70;100.00;;;;;;6208147;23;19954;-64
2024/01/10 05:12:55;;;;;;;;;;;-4.60;100.00;;;;;;6233862;23;20594;-64
2024/01/10 05:15:21;;;;;;;;;;;-4.70;100.00;;;;;;6232520;23;19919;-64
2024/01/10 05:17:48;;;;;;;;;;;-4.70;100.00;;;;;;6233158;23;19939;-64
2024/01/10 05:20:15;;;;;;;;;;;-4.80;100.00;;;;;;6234111;23;19919;-64
2024/01/10 05:22:42;;;;;;;;;;;-4.80;100.00;;;;;;6233701;23;19919;-64
2024/01/10 05:25:09;;;;;;;;;;;-4.80;100.00;;;;;;6233264;23;19919;-64
2024/01/10 05:27:36;;;;;;;;;;;-4.80;100.00;;;;;;6233489;23;19959;-64
2024/01/10 05:30:03;;;;;;;;;;;-4.70;100.00;;;;;;6206200;23;20438;-64
2024/01/10 05:32:30;;;;;;;;;;;-4.80;100.00;;;;;;6233419;23;19926;-64
2024/01/10 05:34:57;;;;;;;;;;;-4.80;100.00;;;;;;6234217;23;19919;-64
2024/01/10 05:37:23;;;;;;;;;;;-4.80;100.00;;;;;;6207517;23;20279;-64
2024/01/10 05:39:50;;;;;;;;;;;-4.90;100.00;;;;;;6234110;23;20307;-64
2024/01/10 05:42:18;;;;;;;;;;;-4.90;100.00;;;;;;6207197;23;19927;-69
2024/01/10 05:44:45;;;;;;;;;;;-4.90;100.00;;;;;;6233856;23;20602;-68
2024/01/10 05:47:12;;;;;;;;;;;-4.90;100.00;;;;;;6234024;23;19969;-69
2024/01/10 05:49:38;;;;;;;;;;;-4.90;100.00;;;;;;6233174;23;19923;-69
2024/01/10 05:52:05;;;;;;;;;;;-4.90;100.00;;;;;;6233968;23;19926;-69
2024/01/10 05:54:32;;;;;;;;;;;-4.90;100.00;;;;;;6233529;23;20005;-69
2024/01/10 05:57:00;;;;;;;;;;;-4.90;100.00;;;;;;6233869;23;19919;-69
2024/01/10 05:59:27;;;;;;;;;;;-4.90;100.00;;;;;;6206608;23;19992;-69
2024/01/10 06:01:56;;;;;;;;;;;-4.80;100.00;;;;;;6233319;23;19926;-68
2024/01/10 06:04:23;;;;;;;;;;;-4.80;100.00;;;;;;6207028;23;19919;-68
2024/01/10 06:09:21;;;;;;;;;;;-4.80;100.00;;;;;;6233825;23;19920;-62
2024/01/10 06:11:48;;;;;;;;;;;-4.80;100.00;;;;;;6233468;23;19923;-65
2024/01/10 06:14:15;;;;;;;;;;;-4.90;100.00;;;;;;6233983;23;19958;-65
2024/01/10 06:16:43;;;;;;;;;;;-4.80;100.00;;;;;;6233722;23;19990;-67
2024/01/10 06:19:10;;;;;;;;;;;-4.80;100.00;;;;;;6206279;23;20292;-63
2024/01/10 06:21:37;;;;;;;;;;;-4.80;100.00;;;;;;6233985;23;20347;-63
2024/01/10 06:24:04;;;;;;;;;;;-4.80;100.00;;;;;;6233602;23;20249;-66
2024/01/10 06:26:31;;;;;;;;;;;-4.80;100.00;;;;;;6235118;23;19919;-65
2024/01/10 06:28:58;;;;;;;;;;;-4.80;100.00;;;;;;6235360;23;19919;-64
2024/01/10 06:31:25;;;;;;;;;;;-4.70;100.00;;;;;;6208628;23;20313;-66
2024/01/10 06:33:51;;;;;;;;;;;-4.70;100.00;;;;;;6234597;23;19920;-78
2024/01/10 06:36:18;;;;;;;;;;;-4.70;100.00;;;;;;6206678;23;19994;-63
2024/01/10 06:38:45;;;;;;;;;;;-4.70;100.00;;;;;;6232008;23;19941;-63
2024/01/10 06:41:15;;;;;;;;;;;-4.70;100.00;;;;;;6234684;23;20568;-63
2024/01/10 06:43:42;;;;;;;;;;;-4.70;100.00;;;;;;6234373;23;20270;-65
2024/01/10 06:46:10;;;;;;;;;;;-4.60;100.00;;;;;;6235499;23;19951;-65
2024/01/10 06:48:37;;;;;;;;;;;-4.70;100.00;;;;;;6235889;23;20678;-64
2024/01/10 06:51:14;;;;;;;;;;;-4.70;100.00;;;;;;6235396;23;19915;-63
2024/01/10 06:53:41;;;;;;;;;;;-4.60;100.00;;;;;;6209411;23;19920;-65
2024/01/10 06:56:09;;;;;;;;;;;-4.70;100.00;;;;;;6235695;23;19943;-64
2024/01/10 06:58:36;;;;;;;;;;;-4.70;100.00;;;;;;6236073;23;19919;-65
2024/01/10 07:01:05;;;;;;;;;;;-4.70;100.00;;;;;;6208949;23;20244;-65
2024/01/10 07:03:32;;;;;;;;;;;-4.70;100.00;;;;;;6209192;23;19919;-65
2024/01/10 07:05:59;;;;;;;;;;;-4.70;100.00;;;;;;6209019;23;19943;-65
2024/01/10 07:08:26;;;;;;;;;;;-4.70;100.00;;;;;;6236216;23;19926;-65
2024/01/10 07:10:55;;;;;;;;;;;-4.70;100.00;;;;;;6235685;23;20261;-65
2024/01/10 07:13:23;;;;;;;;;;;-4.70;100.00;;;;;;6235854;23;20689;-65
2024/01/10 07:15:52;;;;;;;;;;;-4.70;100.00;;;;;;6235276;23;19919;-65
2024/01/10 07:18:19;;;;;;;;;;;-4.70;100.00;;;;;;6235931;23;19939;-65
2024/01/10 07:20:46;;;;;;;;;;;-4.70;100.00;;;;;;6235464;23;20596;-65
2024/01/10 07:23:13;;;;;;;;;;;-4.70;100.00;;;;;;6235713;23;19920;-65
2024/01/10 07:25:40;;;;;;;;;;;-4.60;100.00;;;;;;6235647;23;19919;-65
2024/01/10 07:28:06;;;;;;;;;;;-4.70;100.00;;;;;;6235263;23;19947;-65
2024/01/10 07:30:33;;;;;;;;;;;-4.60;100.00;;;;;;6209253;23;19985;-65
2024/01/10 07:33:00;;;;;;;;;;;-4.60;100.00;;;;;;6208867;23;19965;-65
2024/01/10 07:35:29;;;;;;;;;;;-4.60;100.00;;;;;;6208560;23;19919;-65
2024/01/10 07:37:56;;;;;;;;;;;-4.60;100.00;;;;;;6235078;23;20013;-65
2024/01/10 07:40:22;;;;;;;;;;;-4.60;100.00;;;;;;6235336;23;19943;-65
2024/01/10 07:42:49;;;;;;;;;;;-4.60;100.00;;;;;;6208814;23;19923;-65
2024/01/10 07:45:16;;;;;;;;;;;-4.60;100.00;;;;;;6208123;23;20300;-64
2024/01/10 07:47:43;;;;;;;;;;;-4.60;100.00;;;;;;6235440;23;20444;-65
2024/01/10 07:50:10;;;;;;;;;;;-4.60;100.00;;;;;;6208466;23;20070;-65
2024/01/10 07:52:37;;;;;;;;;;;-4.60;100.00;;;;;;6235766;23;19959;-65
2024/01/10 07:55:05;;;;;;;;;;;-4.60;100.00;;;;;;6235534;23;19923;-65
2024/01/10 07:57:36;;;;;;;;;;;-4.50;100.00;;;;;;6208710;23;19993;-65
2024/01/10 08:00:10;;;;;;;;;;;-4.50;100.00;;;;;;6235159;23;19927;-65
2024/01/10 08:02:38;;;;;;;;;;;-4.50;100.00;;;;;;6208383;23;20408;-65
2024/01/10 08:05:08;;;;;;;;;;;-4.50;100.00;;;;;;6208901;23;19919;-65
2024/01/10 08:07:37;;;;;;;;;;;-4.50;100.00;;;;;;6235085;23;19955;-65
2024/01/10 08:10:09;;;;;;;;;;;-4.60;100.00;;;;;;6234753;23;19970;-65
2024/01/10 08:12:36;;;;;;;;;;;-4.60;100.00;;;;;;6208334;23;19919;-65
2024/01/10 08:15:03;;;;;;;;;;;-4.70;100.00;;;;;;6235833;23;19920;-65
2024/01/10 08:17:30;;;;;;;;;;;-4.60;100.00;;;;;;6208459;23;19926;-65
2024/01/10 08:19:57;;;;;;;;;;;-4.60;100.00;;;;;;6235623;23;19920;-64
2024/01/10 08:22:23;;;;;;;;;;;-4.60;100.00;;;;;;6234521;23;20252;-65
2024/01/10 08:24:54;;;;;;;;;;;-4.50;100.00;;;;;;6234518;23;19915;-65
2024/01/10 08:27:20;;;;;;;;;;;-4.50;100.00;;;;;;6234147;23;19920;-64
2024/01/10 08:29:47;;;;;;;;;;;-4.50;100.00;;;;;;6208086;23;19920;-65
2024/01/10 08:32:15;;;;;;;;;;;-4.50;100.00;;;;;;6234700;23;19919;-65
2024/01/10 08:34:42;;;;;;;;;;;-4.50;100.00;;;;;;6234734;23;19926;-65
2024/01/10 08:37:09;;;;;;;;;;;-4.50;100.00;;;;;;6234109;23;20363;-65
2024/01/10 08:39:35;;;;;;;;;;;-4.40;100.00;;;;;;6234836;23;20296;-65
2024/01/10 08:42:02;;;;;;;;;;;-4.40;100.00;;;;;;6235086;23;20372;-65
2024/01/10 08:44:29;;;;;;;;;;;-4.30;100.00;;;;;;6208411;23;20321;-65
2024/01/10 08:46:56;;;;;;;;;;;-4.30;100.00;;;;;;6234631;23;19923;-65
2024/01/10 08:49:23;;;;;;;;;;;-4.30;100.00;;;;;;6234156;23;20276;-65
2024/01/10 08:51:50;;;;;;;;;;;-4.30;100.00;;;;;;6234790;23;19965;-65
2024/01/10 08:54:19;;;;;;;;;;;-4.30;100.00;;;;;;6234822;23;20345;-64
2024/01/10 08:56:46;;;;;;;;;;;-4.30;100.00;;;;;;6234206;23;19954;-65
2024/01/10 08:59:13;;;;;;;;;;;-4.20;100.00;;;;;;6234528;23;19919;-65
2024/01/10 09:01:40;;;;;;;;;;;-4.10;100.00;;;;;;6235338;23;20029;-65
2024/01/10 09:04:06;;;;;;;;;;;-4.10;100.00;;;;;;6235248;23;19998;-65
2024/01/10 09:06:35;;;;;;;;;;;-4.10;100.00;;;;;;6208281;23;19993;-65
2024/01/10 09:09:02;;;;;;;;;;;-4.10;100.00;;;;;;6234438;23;19925;-65
2024/01/10 09:11:29;;;;;;;;;;;-4.00;100.00;;;;;;6234500;23;20005;-65
2024/01/10 09:13:56;;;;;;;;;;;-3.90;100.00;;;;;;6234345;23;19997;-65
2024/01/10 09:16:23;;;;;;;;;;;-4.00;100.00;;;;;;6234559;23;19923;-65
2024/01/10 09:18:53;;;;;;;;;;;-4.00;100.00;;;;;;6234802;23;19919;-65
2024/01/10 09:21:20;;;;;;;;;;;-3.90;100.00;;;;;;6234441;23;20238;-65
2024/01/10 09:23:50;;;;;;;;;;;-3.90;100.00;;;;;;6207904;23;19919;-65
2024/01/10 09:26:18;;;;;;;;;;;-3.80;100.00;;;;;;6208056;23;19947;-65
2024/01/10 09:28:45;;;;;;;;;;;-3.80;100.00;;;;;;6234584;23;20091;-65
2024/01/10 09:31:12;;;;;;;;;;;-3.70;100.00;;;;;;6234063;23;19919;-65
2024/01/10 09:33:39;;;;;;;;;;;-3.70;100.00;;;;;;6233981;23;19973;-65
2024/01/10 09:36:06;;;;;;;;;;;-3.60;100.00;;;;;;6233749;23;19923;-65
2024/01/10 09:38:37;;;;;;;;;;;-3.50;100.00;;;;;;6234070;23;19920;-65
2024/01/10 09:41:04;;;;;;;;;;;-3.40;100.00;;;;;;6207268;23;20300;-65
2024/01/10 09:43:31;;;;;;;;;;;-3.40;100.00;;;;;;6234144;23;19919;-65
2024/01/10 09:45:58;;;;;;;;;;;-3.40;100.00;;;;;;6233817;23;19919;-65
2024/01/10 09:48:25;;;;;;;;;;;-3.30;100.00;;;;;;6207784;23;19962;-65
2024/01/10 09:50:52;;;;;;;;;;;-3.30;100.00;;;;;;6234766;23;19919;-65
2024/01/10 09:53:26;;;;;;;;;;;-3.30;100.00;;;;;;6234728;23;19994;-65
2024/01/10 09:55:56;;;;;;;;;;;-3.20;100.00;;;;;;6207817;23;20463;-65
2024/01/10 09:58:25;;;;;;;;;;;-3.10;100.00;;;;;;6234476;23;20612;-65
2024/01/10 10:00:51;;;;;;;;;;;-3.10;100.00;;;;;;6233729;23;19973;-65
2024/01/10 10:03:19;;;;;;;;;;;-3.10;100.00;;;;;;6234903;23;19915;-65
2024/01/10 10:05:46;;;;;;;;;;;-3.10;100.00;;;;;;6209117;23;19934;-65
2024/01/10 10:08:21;;;;;;;;;;;-3.10;100.00;;;;;;6209678;23;19958;-65
2024/01/10 10:10:49;;;;;;;;;;;-3.10;100.00;;;;;;6234806;23;19923;-65
2024/01/10 10:13:25;;;;;;;;;;;-3.20;100.00;;;;;;6234787;23;19930;-65
2024/01/10 10:16:02;;;;;;;;;;;-3.10;100.00;;;;;;6236615;23;19962;-65
2024/01/10 10:18:29;;;;;;;;;;;-3.00;100.00;;;;;;6236585;23;19922;-65
2024/01/10 10:21:10;;;;;;;;;;;-2.90;100.00;;;;;;6236427;23;19947;-65
2024/01/10 10:23:57;;;;;;;;;;;-2.90;100.00;;;;;;6235273;23;19920;-65
2024/01/10 10:26:26;;;;;;;;;;;-2.90;100.00;;;;;;6208087;23;19926;-65
2024/01/10 10:28:52;;;;;;;;;;;-2.80;100.00;;;;;;6235959;23;19919;-65
2024/01/10 10:31:20;;;;;;;;;;;-2.80;100.00;;;;;;6209602;23;19916;-65
2024/01/10 10:33:48;;;;;;;;;;;-2.80;100.00;;;;;;6209643;23;19927;-65
2024/01/10 10:36:15;;;;;;;;;;;-2.70;100.00;;;;;;6209481;23;19929;-65
2024/01/10 10:38:42;;;;;;;;;;;-2.80;100.00;;;;;;6236506;23;19927;-65
2024/01/10 10:41:10;;;;;;;;;;;-2.70;100.00;;;;;;6236503;23;19946;-65
2024/01/10 10:43:38;;;;;;;;;;;-2.70;100.00;;;;;;6236375;23;19923;-65
2024/01/10 10:46:14;;;;;;;;;;;-2.70;100.00;;;;;;6236069;23;19919;-63
2024/01/10 10:48:42;;;;;;;;;;;-2.60;100.00;;;;;;6236088;23;19927;-65
2024/01/10 10:51:23;;;;;;;;;;;-2.60;100.00;;;;;;6209637;23;19921;-65
2024/01/10 10:53:50;;;;;;;;;;;-2.50;100.00;;;;;;6236454;23;19924;-65
2024/01/10 10:56:17;;;;;;;;;;;-2.50;100.00;;;;;;6208850;23;20004;-65
2024/01/10 10:58:44;;;;;;;;;;;-2.60;100.00;;;;;;6209295;23;19938;-65
2024/01/10 11:01:12;;;;;;;;;;;-2.60;100.00;;;;;;6236183;23;19919;-65
2024/01/10 11:03:40;;;;;;;;;;;-2.70;100.00;;;;;;6209700;23;19915;-65
2024/01/10 11:06:07;;;;;;;;;;;-2.70;100.00;;;;;;6209470;23;19919;-65
2024/01/10 11:08:37;;;;;;;;;;;-2.70;100.00;;;;;;6209576;23;19919;-65
2024/01/10 11:11:06;;;;;;;;;;;-2.70;100.00;;;;;;6209531;23;19927;-65
2024/01/10 11:13:42;;;;;;;;;;;-2.60;100.00;;;;;;6235650;23;19919;-65
2024/01/10 11:16:27;;;;;;;;;;;-2.50;100.00;;;;;;6235271;23;20022;-65
2024/01/10 11:18:57;;;;;;;;;;;-2.50;100.00;;;;;;6235908;23;19919;-65
2024/01/10 11:21:38;;;;;;;;;;;-2.50;100.00;;;;;;6236034;23;19981;-65
2024/01/10 11:24:06;;;;;;;;;;;-2.50;100.00;;;;;;6236151;23;19923;-65
2024/01/10 11:26:33;;;;;;;;;;;-2.50;100.00;;;;;;6235644;23;19920;-65
2024/01/10 11:29:00;;;;;;;;;;;-2.50;100.00;;;;;;6234849;23;19920;-66
2024/01/10 11:31:31;;;;;;;;;;;-2.40;100.00;;;;;;6235767;23;19919;-65
2024/01/10 11:33:59;;;;;;;;;;;-2.30;100.00;;;;;;6235058;23;19923;-65
2024/01/10 11:36:27;;;;;;;;;;;-2.40;100.00;;;;;;6208817;23;20326;-65
2024/01/10 11:38:56;;;;;;;;;;;-2.40;100.00;;;;;;6208480;23;19993;-65
2024/01/10 11:41:30;;;;;;;;;;;-2.40;100.00;;;;;;6235743;23;20229;-63
2024/01/10 11:44:23;;;;;;;;;;;-2.40;100.00;;;;;;6208658;23;19919;-63
2024/01/10 11:46:52;;;;;;;;;;;-2.30;100.00;;;;;;6231377;23;19920;-63
2024/01/10 11:49:20;;;;;;;;;;;-2.30;100.00;;;;;;6235361;23;19981;-65
2024/01/10 11:51:50;;;;;;;;;;;-2.30;100.00;;;;;;6209047;23;19926;-65
2024/01/10 11:54:36;;;;;;;;;;;-2.40;100.00;;;;;;6235197;23;19930;-65
2024/01/10 11:57:07;;;;;;;;;;;-2.40;100.00;;;;;;6235986;23;19919;-65
2024/01/10 11:59:34;;;;;;;;;;;-2.40;100.00;;;;;;6235355;23;19915;-65
2024/01/10 12:02:03;;;;;;;;;;;-2.20;100.00;;;;;;6235637;23;19920;-65
2024/01/10 12:04:31;;;;;;;;;;;-2.30;100.00;;;;;;6235185;23;19965;-65
2024/01/10 12:07:13;;;;;;;;;;;-2.20;100.00;;;;;;6234944;23;20548;-65
2024/01/10 12:09:41;;;;;;;;;;;-2.10;100.00;;;;;;6209325;23;19927;-65
2024/01/10 12:12:10;;;;;;;;;;;-2.10;100.00;;;;;;6235635;23;19926;-65
2024/01/10 12:14:36;;;;;;;;;;;-2.20;100.00;;;;;;6209365;23;19923;-65
2024/01/10 12:17:05;;;;;;;;;;;-2.20;100.00;;;;;;6208612;23;19923;-66
2024/01/10 12:19:31;;;;;;;;;;;-2.10;100.00;;;;;;6235782;23;19920;-65
2024/01/10 12:21:58;;;;;;;;;;;-2.10;100.00;;;;;;6208836;23;20061;-65
2024/01/10 12:24:27;;;;;;;;;;;-2.10;100.00;;;;;;6235202;23;20450;-65
2024/01/10 12:26:55;;;;;;;;;;;-2.10;100.00;;;;;;6234833;23;19915;-63
2024/01/10 12:29:22;;;;;;;;;;;-2.10;100.00;;;;;;6235338;23;19977;-65
2024/01/10 12:31:49;;;;;;;;;;;-2.20;100.00;;;;;;6235137;23;19915;-62
2024/01/10 12:34:16;;;;;;;;;;;-2.10;100.00;;;;;;6235109;23;19955;-63
2024/01/10 12:36:43;;;;;;;;;;;-2.10;100.00;;;;;;6208536;23;19919;-63
2024/01/10 12:39:11;;;;;;;;;;;-2.00;100.00;;;;;;6235092;23;20361;-63
2024/01/10 12:41:40;;;;;;;;;;;-2.00;100.00;;;;;;6235423;23;19920;-63
2024/01/10 12:44:07;;;;;;;;;;;-2.00;100.00;;;;;;6235246;23;19923;-63
2024/01/10 12:46:33;;;;;;;;;;;-1.90;100.00;;;;;;6235061;23;19915;-63
2024/01/10 12:49:02;;;;;;;;;;;-1.90;100.00;;;;;;6235429;23;19963;-63
2024/01/10 12:51:29;;;;;;;;;;;-1.90;100.00;;;;;;6235248;23;19916;-63
2024/01/10 12:54:01;;;;;;;;;;;-1.90;100.00;;;;;;6235118;23;19920;-63
2024/01/10 12:56:28;;;;;;;;;;;-1.90;100.00;;;;;;6235223;23;20225;-63
2024/01/10 12:58:55;;;;;;;;;;;-2.00;100.00;;;;;;6235059;23;19920;-63
2024/01/10 13:01:23;;;;;;;;;;;-1.90;100.00;;;;;;6208044;23;19919;-63
2024/01/10 13:03:50;;;;;;;;;;;-1.90;100.00;;;;;;6208127;23;19919;-63
2024/01/10 13:06:18;;;;;;;;;;;-2.00;100.00;;;;;;6207816;23;19954;-63
2024/01/10 13:08:45;;;;;;;;;;;-2.00;100.00;;;;;;6234442;23;19919;-63
2024/01/10 13:11:13;;;;;;;;;;;-1.90;100.00;;;;;;6235227;23;19919;-70
2024/01/10 13:13:41;;;;;;;;;;;-2.00;100.00;;;;;;6234219;23;19925;-69
2024/01/10 13:16:10;;;;;;;;;;;-2.00;100.00;;;;;;6234757;23;19993;-69
2024/01/10 13:18:37;;;;;;;;;;;-2.10;100.00;;;;;;6208257;23;20357;-70
2024/01/10 13:21:04;;;;;;;;;;;-2.10;100.00;;;;;;6234674;23;19994;-69
2024/01/10 13:23:31;;;;;;;;;;;-2.20;100.00;;;;;;6235067;23;19985;-69
2024/01/10 13:25:59;;;;;;;;;;;-2.20;100.00;;;;;;6208222;23;19922;-69
2024/01/10 13:28:27;;;;;;;;;;;-2.20;100.00;;;;;;6208132;23;20284;-69
2024/01/10 13:30:56;;;;;;;;;;;-2.20;100.00;;;;;;6235152;23;19926;-69
2024/01/10 13:33:23;;;;;;;;;;;-2.30;100.00;;;;;;6235114;23;19969;-70
2024/01/10 13:35:50;;;;;;;;;;;-2.30;100.00;;;;;;6207325;23;20162;-69
2024/01/10 13:38:16;;;;;;;;;;;-2.30;100.00;;;;;;6235382;23;20015;-69
2024/01/10 13:40:43;;;;;;;;;;;-2.30;100.00;;;;;;6236251;23;19916;-70
2024/01/10 13:43:10;;;;;;;;;;;-2.30;100.00;;;;;;6236555;23;19920;-69
2024/01/10 13:45:38;;;;;;;;;;;-2.30;100.00;;;;;;6209434;23;19974;-70
2024/01/10 13:48:05;;;;;;;;;;;-2.40;100.00;;;;;;6237265;23;19923;-70
2024/01/10 13:50:35;;;;;;;;;;;-2.30;100.00;;;;;;6236766;23;20334;-70
2024/01/10 13:53:04;;;;;;;;;;;-2.30;100.00;;;;;;6210312;23;20425;-70
2024/01/10 13:55:31;;;;;;;;;;;-2.40;100.00;;;;;;6236810;23;19919;-69
2024/01/10 13:57:58;;;;;;;;;;;-2.40;100.00;;;;;;6236859;23;19978;-70
2024/01/10 14:00:25;;;;;;;;;;;-2.50;100.00;;;;;;6236789;23;20510;-70
2024/01/10 14:02:58;;;;;;;;;;;-2.50;100.00;;;;;;6236998;23;19927;-70
2024/01/10 14:05:28;;;;;;;;;;;-2.50;100.00;;;;;;6237002;23;20520;-70
2024/01/10 14:07:56;;;;;;;;;;;-2.50;100.00;;;;;;6236831;23;19919;-70
2024/01/10 14:10:23;;;;;;;;;;;-2.50;100.00;;;;;;6236714;23;20275;-69